createdAt,value
2022-11-11T00:02:09.743Z,8.60
2022-11-11T00:07:31.169Z,7.70
2022-11-11T00:12:52.502Z,7.97
2022-11-11T00:18:32.368Z,7.87
2022-11-11T00:24:11.969Z,8.40
2022-11-11T00:29:32.744Z,7.47
2022-11-11T00:35:14.332Z,8.37
2022-11-11T00:40:35.589Z,9.20
2022-11-11T00:46:16.602Z,8.00
2022-11-11T00:51:38.102Z,7.07
2022-11-11T00:56:59.025Z,6.93
2022-11-11T01:02:19.978Z,7.10
2022-11-11T01:07:41.143Z,6.70
2022-11-11T01:13:22.612Z,6.93
2022-11-11T01:18:43.725Z,6.30
2022-11-11T01:24:04.825Z,6.90
2022-11-11T01:29:25.746Z,7.67
2022-11-11T01:34:46.850Z,6.50
2022-11-11T01:40:08.726Z,6.17
2022-11-11T01:46:14.890Z,6.50
2022-11-11T01:51:41.343Z,6.83
2022-11-11T01:57:11.227Z,6.50
2022-11-11T02:02:40.602Z,7.70
2022-11-11T02:08:07.809Z,6.53
2022-11-11T02:13:47.964Z,6.10
2022-11-11T02:19:09.396Z,6.63
2022-11-11T02:24:32.328Z,6.83
2022-11-11T02:29:56.315Z,6.27
2022-11-11T02:35:22.915Z,8.13
2022-11-11T02:41:04.468Z,7.37
2022-11-11T02:46:25.862Z,6.60
2022-11-11T02:51:47.992Z,5.60
2022-11-11T02:57:09.966Z,8.40
2022-11-11T03:02:31.006Z,7.70
2022-11-11T03:07:52.193Z,6.00
2022-11-11T03:13:13.547Z,5.37
2022-11-11T03:18:34.762Z,8.03
2022-11-11T03:23:55.834Z,5.57
2022-11-11T03:29:16.812Z,5.73
2022-11-11T03:34:38.043Z,7.03
2022-11-11T03:39:59.112Z,5.57
2022-11-11T03:45:20.002Z,6.30
2022-11-11T03:50:41.006Z,5.37
2022-11-11T03:56:02.189Z,6.43
2022-11-11T04:01:41.967Z,6.53
2022-11-11T04:07:21.507Z,7.23
2022-11-11T04:13:01.847Z,5.63
2022-11-11T04:18:42.909Z,6.90
2022-11-11T04:24:24.424Z,7.37
2022-11-11T04:29:47.299Z,7.67
2022-11-11T04:35:10.794Z,7.23
2022-11-11T04:40:50.364Z,6.37
2022-11-11T04:46:11.362Z,6.60
2022-11-11T04:51:52.374Z,5.37
2022-11-11T04:57:13.358Z,5.57
2022-11-11T05:02:52.687Z,4.97
2022-11-11T05:08:32.013Z,5.87
2022-11-11T05:14:13.000Z,5.37
2022-11-11T05:19:53.142Z,5.63
2022-11-11T05:25:26.071Z,6.53
2022-11-11T05:30:46.928Z,7.40
2022-11-11T05:36:08.114Z,6.77
2022-11-11T05:41:29.576Z,7.07
2022-11-11T05:46:50.535Z,5.93
2022-11-11T05:52:18.630Z,7.70
2022-11-11T05:57:39.423Z,6.33
2022-11-11T06:03:05.955Z,5.47
2022-11-11T06:08:26.961Z,6.20
2022-11-11T06:13:48.993Z,6.37
2022-11-11T06:19:10.107Z,5.17
2022-11-11T06:24:31.234Z,5.83
2022-11-11T06:29:52.131Z,6.57
2022-11-11T06:35:13.093Z,5.27
2022-11-11T06:40:34.212Z,6.13
2022-11-11T06:45:56.030Z,6.07
2022-11-11T06:51:18.465Z,4.93
2022-11-11T06:56:39.580Z,5.30
2022-11-11T07:02:00.873Z,6.47
2022-11-11T07:07:21.651Z,6.43
2022-11-11T07:12:42.650Z,6.53
2022-11-11T07:18:04.911Z,5.77
2022-11-11T07:23:25.749Z,5.93
2022-11-11T07:28:46.874Z,6.10
2022-11-11T07:34:08.383Z,5.63
2022-11-11T07:39:29.615Z,5.97
2022-11-11T07:44:50.748Z,7.37
2022-11-11T07:50:12.663Z,8.87
2022-11-11T07:55:33.816Z,6.30
2022-11-11T08:00:54.984Z,5.77
2022-11-11T08:06:18.093Z,5.57
2022-11-11T08:11:57.510Z,5.50
2022-11-11T08:17:18.405Z,5.23
2022-11-11T08:22:40.795Z,5.23
2022-11-11T08:28:04.373Z,5.60
2022-11-11T08:33:34.659Z,6.00
2022-11-11T08:38:56.090Z,5.07
2022-11-11T08:44:17.150Z,5.80
2022-11-11T08:49:38.144Z,5.87
2022-11-11T08:55:01.854Z,5.60
2022-11-11T09:00:24.107Z,6.33
2022-11-11T09:05:47.570Z,5.23
2022-11-11T09:11:08.476Z,5.27
2022-11-11T09:16:29.543Z,6.40
2022-11-11T09:21:53.793Z,6.17
2022-11-11T09:27:15.304Z,6.03
2022-11-11T09:32:36.997Z,5.47
2022-11-11T09:38:00.027Z,5.03
2022-11-11T09:43:59.447Z,5.10
2022-11-11T09:49:57.003Z,4.73
2022-11-11T09:55:26.857Z,4.43
2022-11-11T10:00:54.514Z,5.07
2022-11-11T10:06:24.361Z,3.90
2022-11-11T10:12:00.665Z,4.00
2022-11-11T10:17:37.426Z,5.30
2022-11-11T10:23:17.367Z,4.00
2022-11-11T10:28:49.898Z,5.60
2022-11-11T10:34:17.994Z,5.17
2022-11-11T10:40:00.166Z,5.50
2022-11-11T10:45:27.978Z,6.27
2022-11-11T10:50:54.657Z,5.40
2022-11-11T10:56:30.253Z,4.73
2022-11-11T11:02:15.688Z,4.67
2022-11-11T11:07:51.270Z,5.10
2022-11-11T11:13:25.537Z,4.70
2022-11-11T11:19:19.814Z,5.43
2022-11-11T11:24:43.902Z,5.17
2022-11-11T11:30:24.640Z,5.40
2022-11-11T11:35:45.597Z,5.53
2022-11-11T11:41:06.765Z,4.83
2022-11-11T11:46:39.429Z,5.30
2022-11-11T11:52:17.026Z,4.60
2022-11-11T11:57:37.862Z,5.20
2022-11-11T12:03:30.223Z,5.33
2022-11-11T12:09:03.300Z,5.27
2022-11-11T12:14:43.528Z,4.43
2022-11-11T12:20:14.540Z,4.63
2022-11-11T12:25:52.936Z,5.27
2022-11-11T12:31:14.110Z,4.70
2022-11-11T12:36:35.154Z,4.77
2022-11-11T12:42:11.557Z,4.23
2022-11-11T12:48:17.160Z,4.70
2022-11-11T12:53:53.374Z,4.63
2022-11-11T12:59:35.437Z,4.77
2022-11-11T13:05:14.921Z,3.47
2022-11-11T13:11:09.398Z,4.40
2022-11-11T13:16:30.714Z,5.17
2022-11-11T13:21:59.272Z,3.93
2022-11-11T13:27:42.779Z,3.53
2022-11-11T13:33:23.814Z,3.60
2022-11-11T13:38:54.078Z,4.23
2022-11-11T13:44:24.048Z,3.50
2022-11-11T13:49:55.210Z,3.77
2022-11-11T13:55:25.197Z,3.70
2022-11-11T14:00:46.281Z,3.73
2022-11-11T14:06:16.206Z,3.00
2022-11-11T14:11:37.301Z,2.93
2022-11-11T14:17:21.051Z,3.70
2022-11-11T14:22:43.273Z,4.20
2022-11-11T14:28:05.486Z,4.03
2022-11-11T14:33:46.462Z,3.50
2022-11-11T14:39:27.922Z,5.97
2022-11-11T14:44:49.037Z,4.40
2022-11-11T14:50:32.508Z,5.70
2022-11-11T14:55:55.782Z,4.70
2022-11-11T15:01:20.620Z,4.20
2022-11-11T15:07:00.356Z,5.40
2022-11-11T15:12:42.867Z,5.40
2022-11-11T15:18:26.848Z,5.40
2022-11-11T15:24:06.297Z,4.87
2022-11-11T15:29:39.125Z,5.83
2022-11-11T15:35:00.141Z,5.47
2022-11-11T15:40:22.894Z,4.80
2022-11-11T15:45:44.170Z,4.93
2022-11-11T15:51:27.427Z,5.13
2022-11-11T15:56:48.281Z,5.20
2022-11-11T16:02:26.702Z,7.37
2022-11-11T16:07:51.400Z,6.77
2022-11-11T16:13:26.405Z,7.03
2022-11-11T16:18:52.534Z,7.63
2022-11-11T16:24:27.408Z,13.23
2022-11-11T16:29:48.392Z,9.63
2022-11-11T16:35:23.766Z,9.63
2022-11-11T16:40:44.918Z,8.63
2022-11-11T16:46:08.881Z,8.60
2022-11-11T16:51:42.051Z,7.33
2022-11-11T16:57:03.073Z,9.07
2022-11-11T17:02:25.577Z,8.27
2022-11-11T17:07:46.613Z,10.33
2022-11-11T17:13:07.847Z,9.40
2022-11-11T17:18:29.366Z,9.30
2022-11-11T17:23:52.465Z,9.77
2022-11-11T17:29:14.957Z,11.27
2022-11-11T17:34:36.340Z,14.07
2022-11-11T17:39:57.488Z,18.53
2022-11-11T17:45:19.176Z,21.43
2022-11-11T17:50:40.666Z,22.23
2022-11-11T17:56:05.088Z,15.63
2022-11-11T18:01:34.258Z,20.77
2022-11-11T18:06:55.646Z,20.27
2022-11-11T18:12:16.926Z,19.57
2022-11-11T18:17:38.131Z,19.97
2022-11-11T18:22:58.842Z,20.83
2022-11-11T18:28:20.002Z,19.47
2022-11-11T18:33:47.764Z,19.17
2022-11-11T18:39:10.249Z,19.27
2022-11-11T18:44:31.443Z,20.03
2022-11-11T18:49:58.233Z,19.67
2022-11-11T18:55:19.985Z,20.37
2022-11-11T19:00:41.722Z,19.33
2022-11-11T19:06:07.255Z,20.90
2022-11-11T19:11:29.024Z,20.37
2022-11-11T19:16:50.236Z,21.10
2022-11-11T19:22:11.279Z,21.60
2022-11-11T19:27:32.276Z,22.87
2022-11-11T19:32:53.169Z,24.73
2022-11-11T19:38:14.371Z,26.07
2022-11-11T19:43:36.848Z,26.73
2022-11-11T19:49:00.469Z,29.20
2022-11-11T19:54:22.064Z,29.30
2022-11-11T19:59:43.870Z,29.13
2022-11-11T20:05:07.478Z,28.87
2022-11-11T20:10:29.183Z,29.03
2022-11-11T20:15:51.020Z,25.93
2022-11-11T20:21:13.597Z,27.13
2022-11-11T20:26:35.532Z,24.90
2022-11-11T20:31:56.823Z,26.30
2022-11-11T20:37:18.093Z,23.13
2022-11-11T20:42:39.388Z,20.63
2022-11-11T20:48:00.103Z,19.43
2022-11-11T20:53:21.476Z,20.13
2022-11-11T20:58:43.322Z,19.37
2022-11-11T21:04:05.782Z,16.77
2022-11-11T21:09:26.669Z,17.53
2022-11-11T21:14:47.506Z,17.17
2022-11-11T21:20:08.735Z,16.70
2022-11-11T21:25:32.368Z,16.27
2022-11-11T21:30:58.938Z,16.37
2022-11-11T21:36:21.465Z,15.70
2022-11-11T21:41:42.366Z,15.70
2022-11-11T21:47:03.447Z,16.27
2022-11-11T21:52:24.246Z,15.43
2022-11-11T21:57:45.011Z,15.30
2022-11-11T22:03:06.076Z,15.67
2022-11-11T22:08:27.662Z,12.43
2022-11-11T22:13:49.800Z,16.87
2022-11-11T22:19:14.681Z,15.53
2022-11-11T22:24:35.641Z,15.67
2022-11-11T22:29:56.628Z,15.87
2022-11-11T22:35:17.589Z,14.20
2022-11-11T22:40:38.757Z,18.30
2022-11-11T22:46:00.113Z,16.73
2022-11-11T22:51:22.799Z,12.63
2022-11-11T22:56:43.814Z,14.73
2022-11-11T23:02:05.139Z,12.27
2022-11-11T23:07:25.984Z,13.20
2022-11-11T23:12:46.740Z,17.87
2022-11-11T23:18:07.800Z,13.87
2022-11-11T23:23:29.152Z,11.90
2022-11-11T23:28:50.299Z,12.73
2022-11-11T23:34:11.393Z,13.27
2022-11-11T23:39:32.579Z,10.87
2022-11-11T23:44:53.547Z,10.63
2022-11-11T23:50:14.777Z,9.40
2022-11-11T23:55:36.032Z,11.10
